Time;durP1;ratioP1;P1;durP2;ratioP2;P2;SDS_P1;SDS_P2;PMS_P1;PMS_P2;Temp;Humidity;BMP_temperature;BMP_pressure;BME280_temperature;BME280_humidity;BME280_pressure;Samples;Min_cycle;Max_cycle;Signal;HPM_P1;HPM_P2
2022/09/02 00:00:48;;;;;;;4.03;3.73;;;19.30;67.00;;;;;;5055653;28;20933;-67
2022/09/02 00:03:15;;;;;;;4.47;4.07;;;19.30;67.80;;;;;;5055031;28;20416;-67
2022/09/02 00:05:41;;;;;;;4.30;4.00;;;19.30;67.90;;;;;;5055733;28;20470;-67
2022/09/02 00:08:08;;;;;;;4.03;3.83;;;19.30;68.10;;;;;;5054980;28;20429;-67
2022/09/02 00:10:40;;;;;;;4.00;3.80;;;19.30;69.00;;;;;;5055685;28;20408;-67
2022/09/02 00:13:07;;;;;;;3.90;3.70;;;19.30;68.10;;;;;;5045400;28;20436;-67
2022/09/02 00:15:33;;;;;;;3.93;3.73;;;19.30;68.90;;;;;;5035382;28;20897;-67
2022/09/02 00:18:00;;;;;;;4.30;4.10;;;19.20;70.00;;;;;;5035013;28;20505;-71
2022/09/02 00:20:27;;;;;;;3.90;3.70;;;19.20;69.10;;;;;;5035666;28;20425;-67
2022/09/02 00:22:53;;;;;;;4.53;4.23;;;19.10;69.40;;;;;;5035403;28;20485;-67
2022/09/02 00:25:19;;;;;;;4.50;4.30;;;19.10;69.60;;;;;;5018967;28;20578;-69
2022/09/02 00:27:45;;;;;;;4.70;4.40;;;19.10;69.90;;;;;;5054646;28;20316;-67
2022/09/02 00:30:12;;;;;;;4.40;4.17;;;19.10;69.70;;;;;;5053247;28;20516;-67
2022/09/02 00:32:38;;;;;;;5.30;3.83;;;19.00;69.70;;;;;;5037418;28;20181;-67
2022/09/02 00:35:04;;;;;;;3.80;3.60;;;19.00;70.30;;;;;;5034591;28;20472;-67
2022/09/02 00:37:30;;;;;;;4.23;3.90;;;19.00;70.00;;;;;;5017644;28;20479;-67
2022/09/02 00:39:56;;;;;;;4.53;4.20;;;19.00;72.70;;;;;;5034477;28;20428;-67
2022/09/02 00:42:23;;;;;;;4.33;4.00;;;19.00;70.50;;;;;;5034381;28;20933;-67
2022/09/02 00:44:49;;;;;;;4.40;4.20;;;19.00;71.40;;;;;;5003416;28;20827;-70
2022/09/02 00:47:15;;;;;;;4.60;4.40;;;19.00;71.70;;;;;;5034252;28;20424;-67
2022/09/02 00:49:44;;;;;;;5.13;4.83;;;18.80;72.40;;;;;;5041142;28;20463;-67
2022/09/02 00:52:30;;;;;;;5.10;4.80;;;18.80;72.30;;;;;;4985617;28;20551;-67
2022/09/02 00:55:03;;;;;;;4.57;4.27;;;18.80;71.50;;;;;;5048414;28;20456;-67
2022/09/02 00:57:32;;;;;;;3.97;3.83;;;18.80;72.40;;;;;;5035146;28;20402;-67
2022/09/02 01:00:18;;;;;;;4.70;4.40;;;18.80;71.80;;;;;;5034614;28;20765;-67
2022/09/02 01:02:49;;;;;;;4.50;4.30;;;18.80;70.90;;;;;;5034886;28;20950;-67
2022/09/02 01:05:18;;;;;;;5.20;4.90;;;18.80;72.00;;;;;;5034344;28;20774;-67
2022/09/02 01:07:45;;;;;;;4.47;4.27;;;18.80;71.80;;;;;;5034755;28;20417;-67
2022/09/02 01:10:16;;;;;;;4.70;4.40;;;18.80;72.00;;;;;;5033385;28;20986;-67
2022/09/02 01:12:42;;;;;;;5.60;4.80;;;18.80;72.40;;;;;;5016618;28;20413;-66
2022/09/02 01:15:10;;;;;;;5.03;4.63;;;18.70;72.50;;;;;;5033227;28;20545;-70
2022/09/02 01:17:41;;;;;;;5.50;5.20;;;18.70;73.30;;;;;;5034018;28;20469;-66
2022/09/02 01:20:11;;;;;;;5.50;5.00;;;18.70;73.10;;;;;;5033741;28;20417;-67
2022/09/02 01:22:38;;;;;;;5.17;4.87;;;18.70;73.30;;;;;;5034402;28;20420;-67
2022/09/02 01:25:18;;;;;;;5.43;4.90;;;18.70;73.90;;;;;;5033059;28;20789;-73
2022/09/02 01:27:44;;;;;;;5.23;4.83;;;18.70;74.10;;;;;;5016429;28;20400;-73
2022/09/02 01:30:13;;;;;;;5.67;5.17;;;18.60;73.90;;;;;;5033761;28;20812;-67
2022/09/02 01:32:39;;;;;;;6.73;5.10;;;18.60;74.50;;;;;;5016569;28;20467;-67
2022/09/02 01:35:06;;;;;;;5.67;5.27;;;18.60;75.20;;;;;;5041503;28;20955;-72
2022/09/02 01:37:32;;;;;;;6.23;5.63;;;18.60;75.40;;;;;;5054067;28;20444;-66
2022/09/02 01:39:59;;;;;;;7.73;6.40;;;18.70;75.10;;;;;;5037786;28;20464;-67
2022/09/02 01:42:24;;;;;;;6.17;5.67;;;18.70;75.40;;;;;;5033275;28;20409;-67
2022/09/02 01:44:50;;;;;;;9.10;5.63;;;18.60;75.40;;;;;;5034000;28;20413;-67
2022/09/02 01:47:20;;;;;;;6.27;5.87;;;18.60;75.30;;;;;;5033261;28;20241;-67
2022/09/02 01:49:47;;;;;;;6.73;6.10;;;18.60;75.40;;;;;;5011208;28;20217;-66
2022/09/02 01:52:14;;;;;;;6.73;6.20;;;18.60;75.50;;;;;;5053354;28;20767;-67
2022/09/02 01:54:40;;;;;;;6.03;5.63;;;18.60;75.50;;;;;;5053120;28;20451;-66
2022/09/02 01:57:05;;;;;;;6.60;5.77;;;18.60;75.80;;;;;;5053107;28;20803;-73
2022/09/02 01:59:31;;;;;;;6.07;5.50;;;18.60;75.20;;;;;;5052187;28;20405;-67
2022/09/02 02:01:57;;;;;;;6.07;5.47;;;18.60;75.70;;;;;;5053626;28;20276;-67
2022/09/02 02:04:23;;;;;;;6.10;5.60;;;18.60;76.50;;;;;;5052807;28;20181;-66
2022/09/02 02:06:50;;;;;;;5.37;4.87;;;18.60;75.60;;;;;;5052960;28;20181;-67
2022/09/02 02:09:16;;;;;;;5.07;4.67;;;18.60;75.80;;;;;;5050889;28;20432;-67
2022/09/02 02:11:43;;;;;;;6.50;4.40;;;18.50;75.50;;;;;;5052813;28;20409;-67
2022/09/02 02:14:09;;;;;;;6.40;4.60;;;18.50;75.60;;;;;;5051990;28;20460;-67
2022/09/02 02:16:35;;;;;;;4.53;4.20;;;18.50;75.00;;;;;;5053060;28;20934;-67
2022/09/02 02:19:01;;;;;;;4.70;4.40;;;18.50;75.40;;;;;;5052819;28;20436;-67
2022/09/02 02:21:27;;;;;;;5.37;4.97;;;18.50;76.30;;;;;;5069857;28;20254;-66
2022/09/02 02:23:53;;;;;;;5.77;5.37;;;18.50;75.80;;;;;;5072072;28;20219;-66
2022/09/02 02:26:18;;;;;;;4.70;4.40;;;18.40;76.20;;;;;;5071884;28;20439;-69
2022/09/02 02:28:44;;;;;;;4.83;4.53;;;18.40;76.30;;;;;;5071856;28;20234;-66
2022/09/02 02:31:10;;;;;;;5.20;4.90;;;18.40;76.30;;;;;;5072274;28;20177;-66
2022/09/02 02:33:37;;;;;;;5.90;5.60;;;18.40;76.00;;;;;;5072964;28;20569;-65
2022/09/02 02:36:05;;;;;;;5.90;5.50;;;18.40;76.30;;;;;;5071198;28;20431;-65
2022/09/02 02:38:34;;;;;;;5.70;5.40;;;18.30;76.50;;;;;;5070299;28;20427;-65
2022/09/02 02:41:01;;;;;;;5.10;4.80;;;18.30;76.60;;;;;;5071671;28;20411;-66
2022/09/02 02:43:27;;;;;;;5.20;4.90;;;18.30;76.50;;;;;;5070582;28;20408;-66
2022/09/02 02:45:53;;;;;;;5.03;4.60;;;18.30;76.20;;;;;;5070632;28;20800;-66
2022/09/02 02:48:20;;;;;;;5.43;4.97;;;18.30;76.00;;;;;;5071957;28;20177;-66
2022/09/02 02:50:46;;;;;;;4.33;4.13;;;18.20;75.30;;;;;;5064640;28;20221;-66
2022/09/02 02:53:12;;;;;;;4.43;4.23;;;18.20;75.40;;;;;;5051495;28;20409;-66
2022/09/02 02:55:38;;;;;;;4.70;4.50;;;18.20;74.30;;;;;;5054171;28;20553;-65
2022/09/02 02:58:04;;;;;;;4.60;4.30;;;18.20;74.20;;;;;;5052625;28;20184;-65
2022/09/02 03:00:31;;;;;;;3.73;3.53;;;18.20;74.50;;;;;;5059800;28;21254;-65
2022/09/02 03:03:09;;;;;;;3.97;3.77;;;18.20;74.60;;;;;;5052117;28;20189;-67
2022/09/02 03:05:36;;;;;;;4.90;4.50;;;18.20;74.30;;;;;;5056556;28;20431;-67
2022/09/02 03:08:08;;;;;;;4.03;3.83;;;18.20;75.20;;;;;;5055070;28;20480;-66
2022/09/02 03:10:34;;;;;;;4.53;4.33;;;18.20;74.80;;;;;;5066454;28;20411;-67
2022/09/02 03:13:01;;;;;;;4.40;4.13;;;18.20;75.20;;;;;;5072020;28;20395;-67
2022/09/02 03:15:28;;;;;;;4.60;4.20;;;18.20;76.00;;;;;;5071561;28;21089;-67
2022/09/02 03:17:55;;;;;;;4.50;4.30;;;18.20;75.80;;;;;;5071045;28;20534;-66
2022/09/02 03:20:22;;;;;;;4.83;4.53;;;18.10;76.00;;;;;;5019587;28;20453;-66
2022/09/02 03:22:49;;;;;;;4.70;4.47;;;18.10;75.90;;;;;;5072132;28;20411;-66
2022/09/02 03:25:19;;;;;;;4.87;4.57;;;18.10;76.00;;;;;;5070712;28;20448;-67
2022/09/02 03:27:46;;;;;;;8.33;5.20;;;18.10;76.50;;;;;;5072670;28;20802;-66
2022/09/02 03:30:16;;;;;;;5.07;4.67;;;18.00;76.80;;;;;;5071550;28;20511;-72
2022/09/02 03:32:42;;;;;;;5.10;4.70;;;18.00;77.70;;;;;;5072390;28;20467;-66
2022/09/02 03:35:11;;;;;;;5.60;5.20;;;18.00;77.30;;;;;;5069944;28;20862;-71
2022/09/02 03:37:37;;;;;;;5.07;4.83;;;18.00;78.10;;;;;;5069544;28;20185;-66
2022/09/02 03:40:05;;;;;;;5.07;4.77;;;17.90;78.10;;;;;;5072010;28;20411;-67
2022/09/02 03:42:30;;;;;;;5.20;4.80;;;17.90;78.50;;;;;;5070942;28;20165;-66
2022/09/02 03:44:57;;;;;;;4.33;4.13;;;17.90;78.50;;;;;;5070701;28;20756;-70
2022/09/02 03:47:23;;;;;;;5.00;4.60;;;17.90;78.90;;;;;;5050989;28;20185;-66
2022/09/02 03:49:49;;;;;;;6.27;5.97;;;17.90;79.00;;;;;;5043552;28;20473;-66
2022/09/02 03:52:15;;;;;;;6.93;6.53;;;17.80;79.10;;;;;;5031331;28;20440;-67
2022/09/02 03:54:41;;;;;;;4.80;4.50;;;17.80;79.30;;;;;;5047461;28;20494;-66
2022/09/02 03:57:07;;;;;;;4.40;4.20;;;17.90;79.40;;;;;;5050596;28;20970;-67
2022/09/02 03:59:33;;;;;;;15.43;5.03;;;17.80;79.30;;;;;;5051059;28;20408;-66
2022/09/02 04:02:01;;;;;;;6.77;6.37;;;17.90;79.60;;;;;;5051764;28;20227;-66
2022/09/02 04:04:28;;;;;;;4.80;4.57;;;17.90;79.50;;;;;;5049911;28;20555;-71
2022/09/02 04:06:54;;;;;;;6.00;5.60;;;17.90;78.40;;;;;;5023409;28;20491;-66
2022/09/02 04:09:21;;;;;;;5.10;4.80;;;17.90;78.40;;;;;;5031105;28;20404;-66
2022/09/02 04:11:46;;;;;;;4.50;4.20;;;17.90;77.20;;;;;;5031937;28;20771;-66
2022/09/02 04:14:12;;;;;;;4.70;4.40;;;17.90;77.40;;;;;;5038375;28;20459;-73
2022/09/02 04:23:23;;;;;;;4.50;4.30;;;18.00;76.70;;;;;;5050825;28;20416;-67
2022/09/02 04:25:48;;;;;;;6.30;5.90;;;18.00;77.70;;;;;;5051591;28;20502;-66
2022/09/02 04:28:14;;;;;;;5.87;5.57;;;18.10;77.40;;;;;;5051045;28;20224;-73
2022/09/02 04:30:41;;;;;;;6.53;5.90;;;18.10;77.00;;;;;;5051502;28;20252;-67
2022/09/02 04:33:08;;;;;;;6.57;6.17;;;18.10;77.40;;;;;;5050445;28;20177;-66
2022/09/02 04:35:36;;;;;;;6.67;6.07;;;18.10;76.20;;;;;;5051095;28;20524;-66
2022/09/02 04:38:02;;;;;;;5.80;5.40;;;18.10;76.00;;;;;;5055270;28;20412;-66
2022/09/02 04:40:28;;;;;;;5.30;4.83;;;18.10;77.00;;;;;;5039159;28;20429;-66
2022/09/02 04:42:54;;;;;;;4.80;4.40;;;18.10;76.70;;;;;;5036854;28;20225;-66
2022/09/02 04:45:20;;;;;;;5.70;5.30;;;18.10;77.00;;;;;;5054305;28;20174;-67
2022/09/02 04:47:45;;;;;;;5.10;4.70;;;18.10;76.50;;;;;;5037172;28;20430;-66
2022/09/02 04:50:11;;;;;;;6.37;4.73;;;18.10;77.50;;;;;;5054574;28;20801;-66
2022/09/02 04:52:37;;;;;;;5.50;4.63;;;18.00;76.50;;;;;;5053115;28;20200;-66
2022/09/02 04:55:05;;;;;;;4.97;4.67;;;18.00;76.10;;;;;;5054773;28;20197;-66
2022/09/02 04:57:32;;;;;;;7.70;7.03;;;18.10;77.00;;;;;;5054093;28;20827;-66
2022/09/02 04:59:57;;;;;;;5.87;5.47;;;18.10;76.00;;;;;;5053598;28;20945;-67
2022/09/02 05:02:24;;;;;;;4.97;4.67;;;18.10;76.90;;;;;;5037082;28;20437;-67
2022/09/02 05:04:51;;;;;;;6.07;5.57;;;18.00;77.90;;;;;;5038001;28;20186;-66
2022/09/02 05:07:17;;;;;;;6.17;5.60;;;18.10;79.30;;;;;;5052675;28;20436;-73
2022/09/02 05:09:43;;;;;;;7.03;5.00;;;18.10;79.20;;;;;;5035613;28;20474;-66
2022/09/02 05:12:09;;;;;;;6.70;6.00;;;18.10;78.50;;;;;;5054680;28;20166;-66
2022/09/02 05:14:35;;;;;;;6.73;4.73;;;18.10;79.60;;;;;;5053624;28;20475;-66
2022/09/02 05:17:01;;;;;;;6.20;4.40;;;18.20;80.60;;;;;;5054530;28;20441;-66
2022/09/02 05:19:27;;;;;;;4.93;4.63;;;18.20;79.90;;;;;;5053575;28;20499;-66
2022/09/02 05:21:54;;;;;;;6.40;5.80;;;18.20;81.20;;;;;;5019785;28;20429;-66
2022/09/02 05:24:21;;;;;;;5.37;4.70;;;18.30;81.60;;;;;;5000652;28;20193;-67
2022/09/02 05:26:46;;;;;;;7.50;6.97;;;18.30;81.50;;;;;;5054480;28;20496;-66
2022/09/02 05:29:12;;;;;;;7.47;6.77;;;18.30;81.20;;;;;;5054300;28;20487;-67
2022/09/02 05:31:40;;;;;;;6.53;5.23;;;18.30;80.70;;;;;;5047666;28;20173;-66
2022/09/02 05:34:07;;;;;;;5.70;5.20;;;18.30;79.70;;;;;;5042017;28;21012;-67
2022/09/02 05:36:33;;;;;;;5.43;5.03;;;18.30;78.20;;;;;;5053334;28;20448;-66
2022/09/02 05:38:59;;;;;;;8.23;7.50;;;18.30;78.30;;;;;;5052212;28;20458;-67
2022/09/02 05:41:26;;;;;;;7.10;6.30;;;18.40;78.20;;;;;;5033078;28;20220;-67
2022/09/02 05:43:55;;;;;;;7.93;6.67;;;18.40;78.70;;;;;;5016242;28;20897;-67
2022/09/02 05:46:23;;;;;;;5.03;4.63;;;18.50;80.10;;;;;;5042568;28;20428;-67
2022/09/02 05:49:07;;;;;;;7.67;7.07;;;18.60;81.10;;;;;;5053346;28;20491;-67
2022/09/02 05:51:40;;;;;;;5.77;5.33;;;18.70;81.10;;;;;;5052072;28;20531;-67
2022/09/02 05:54:11;;;;;;;6.53;6.03;;;18.60;81.60;;;;;;5053906;28;20455;-66
2022/09/02 05:56:42;;;;;;;10.03;7.33;;;18.70;82.20;;;;;;5046679;28;20432;-67
2022/09/02 05:59:09;;;;;;;6.20;5.63;;;18.80;82.60;;;;;;5033809;28;20405;-67
2022/09/02 06:01:36;;;;;;;11.93;6.07;;;18.80;82.30;;;;;;5021295;28;20437;-67
2022/09/02 06:04:03;;;;;;;12.20;7.57;;;18.90;82.50;;;;;;5033812;28;20905;-67
2022/09/02 06:06:29;;;;;;;13.27;6.40;;;18.90;82.10;;;;;;5032661;28;20413;-67
2022/09/02 06:08:55;;;;;;;16.50;7.73;;;19.00;82.80;;;;;;5033635;28;20424;-67
2022/09/02 06:11:21;;;;;;;14.23;8.30;;;19.10;83.80;;;;;;5037971;28;20432;-67
2022/09/02 06:13:47;;;;;;;11.80;7.63;;;19.20;83.90;;;;;;5045449;28;20967;-66
2022/09/02 06:16:18;;;;;;;17.53;10.73;;;19.20;83.20;;;;;;5051354;28;20629;-66
2022/09/02 06:18:45;;;;;;;13.87;7.67;;;19.30;82.70;;;;;;5051483;28;20529;-66
2022/09/02 06:21:11;;;;;;;8.90;8.00;;;19.40;82.90;;;;;;5048486;28;20448;-67
2022/09/02 06:23:39;;;;;;;15.03;7.50;;;19.40;82.50;;;;;;5026382;28;20454;-66
2022/09/02 06:26:07;;;;;;;15.87;8.20;;;19.50;82.80;;;;;;5053148;28;20727;-67
2022/09/02 06:28:34;;;;;;;13.57;8.30;;;19.50;82.10;;;;;;5034223;28;20475;-66
2022/09/02 06:31:13;;;;;;;22.03;7.27;;;19.60;82.40;;;;;;5047563;28;20451;-67
2022/09/02 06:33:40;;;;;;;14.47;8.00;;;19.60;82.50;;;;;;5044832;28;20463;-67
2022/09/02 06:36:09;;;;;;;14.10;8.93;;;19.60;85.30;;;;;;5051858;28;20497;-67
2022/09/02 06:38:41;;;;;;;9.57;6.83;;;19.70;84.00;;;;;;5046999;28;20437;-69
2022/09/02 06:41:09;;;;;;;11.43;6.50;;;19.70;83.20;;;;;;5041098;28;20522;-67
2022/09/02 06:43:35;;;;;;;9.77;5.77;;;19.80;84.60;;;;;;5037150;28;20515;-67
2022/09/02 06:46:01;;;;;;;5.50;5.00;;;19.80;84.40;;;;;;5008254;28;20425;-66
2022/09/02 06:48:27;;;;;;;7.97;4.50;;;19.80;80.40;;;;;;5008363;28;20442;-68
2022/09/02 06:50:54;;;;;;;5.30;4.60;;;19.80;84.50;;;;;;5047480;28;20244;-67
2022/09/02 06:53:20;;;;;;;8.03;5.37;;;19.90;82.40;;;;;;5046551;28;20951;-73
2022/09/02 06:55:46;;;;;;;4.80;4.50;;;19.80;86.50;;;;;;5046617;28;20439;-68
2022/09/02 06:58:13;;;;;;;4.47;4.07;;;20.00;86.40;;;;;;5048841;28;20436;-67
2022/09/02 07:00:40;;;;;;;4.30;4.00;;;20.30;85.30;;;;;;5048622;28;20232;-67
2022/09/02 07:06:18;;;;;;;4.83;4.30;;;20.70;82.40;;;;;;5031662;28;20436;-67
2022/09/02 07:08:44;;;;;;;5.13;4.83;;;20.90;77.50;;;;;;5045358;28;20863;-67
2022/09/02 07:11:19;;;;;;;5.27;4.97;;;20.80;75.40;;;;;;5050511;28;20435;-67
2022/09/02 07:13:45;;;;;;;5.10;4.73;;;20.80;76.00;;;;;;5046271;28;20562;-67
2022/09/02 07:16:11;;;;;;;5.20;4.87;;;20.70;74.90;;;;;;5050578;28;20539;-67
2022/09/02 07:18:37;;;;;;;6.03;4.50;;;20.60;74.60;;;;;;5072133;28;20407;-67
2022/09/02 07:21:03;;;;;;;4.93;4.37;;;20.70;75.70;;;;;;5072699;28;20856;-67
2022/09/02 07:23:29;;;;;;;5.13;4.43;;;20.70;77.20;;;;;;5071953;28;20457;-67
2022/09/02 07:25:55;;;;;;;8.60;4.23;;;20.60;75.40;;;;;;5072662;28;20260;-66
2022/09/02 07:28:21;;;;;;;7.33;5.50;;;20.60;75.90;;;;;;5072782;28;20283;-66
2022/09/02 07:30:47;;;;;;;5.20;4.90;;;20.50;76.40;;;;;;5063133;28;20196;-67
2022/09/02 07:33:14;;;;;;;7.33;4.80;;;20.50;76.80;;;;;;5059193;28;20447;-68
2022/09/02 07:35:41;;;;;;;5.40;5.00;;;20.60;79.50;;;;;;5061023;28;20514;-67
2022/09/02 07:38:09;;;;;;;6.20;4.83;;;20.70;81.00;;;;;;5072498;28;20404;-67
2022/09/02 07:40:35;;;;;;;7.27;5.50;;;20.90;81.40;;;;;;5055173;28;20428;-67
2022/09/02 07:43:07;;;;;;;6.83;6.03;;;21.10;80.50;;;;;;5053573;28;20432;-67
2022/09/02 07:45:34;;;;;;;10.13;5.00;;;21.30;79.50;;;;;;5064358;28;20465;-68
2022/09/02 07:48:00;;;;;;;5.67;5.20;;;21.40;78.40;;;;;;5055666;28;20866;-67
2022/09/02 07:50:26;;;;;;;5.23;4.80;;;21.60;77.00;;;;;;5049313;28;20475;-68
2022/09/02 07:52:54;;;;;;;7.90;5.57;;;21.70;77.10;;;;;;5038800;28;20425;-67
2022/09/02 07:55:22;;;;;;;5.57;5.07;;;21.80;76.60;;;;;;5031141;28;20963;-67
2022/09/02 07:57:48;;;;;;;5.33;4.83;;;21.90;76.80;;;;;;5031817;28;20443;-68
2022/09/02 08:00:16;;;;;;;5.23;4.37;;;22.00;76.70;;;;;;5044169;28;20464;-67
2022/09/02 08:02:43;;;;;;;7.60;5.80;;;22.20;75.50;;;;;;5033978;28;20449;-67
2022/09/02 08:05:10;;;;;;;7.23;4.40;;;22.20;73.80;;;;;;5050322;28;20977;-67
2022/09/02 08:07:36;;;;;;;5.17;4.50;;;22.30;74.50;;;;;;5040472;28;20792;-68
2022/09/02 08:10:02;;;;;;;5.70;5.30;;;22.40;76.00;;;;;;5040985;28;20428;-68
2022/09/02 08:12:28;;;;;;;7.70;4.70;;;22.40;74.40;;;;;;5063793;28;20173;-75
2022/09/02 08:14:56;;;;;;;5.03;4.63;;;22.50;74.90;;;;;;5075987;28;20800;-67
2022/09/02 08:17:22;;;;;;;4.13;3.93;;;22.70;75.50;;;;;;5075895;28;20196;-67
2022/09/02 08:19:48;;;;;;;6.43;4.47;;;22.70;74.60;;;;;;5075044;28;20411;-67
2022/09/02 08:22:14;;;;;;;5.90;5.40;;;22.80;74.00;;;;;;5049030;28;20630;-67
2022/09/02 08:24:39;;;;;;;5.70;5.30;;;22.80;73.50;;;;;;5045125;28;20189;-71
2022/09/02 08:27:05;;;;;;;5.07;4.63;;;22.90;74.50;;;;;;5046427;28;20209;-68
2022/09/02 08:29:31;;;;;;;5.20;4.70;;;22.90;74.00;;;;;;5039058;28;20232;-68
2022/09/02 08:31:57;;;;;;;6.43;5.93;;;23.00;73.50;;;;;;5055924;28;20416;-67
2022/09/02 08:34:23;;;;;;;5.90;5.60;;;23.10;73.60;;;;;;5047899;28;20464;-67
2022/09/02 08:36:48;;;;;;;6.70;6.20;;;23.10;72.80;;;;;;5041468;28;20192;-68
2022/09/02 08:39:14;;;;;;;5.70;5.20;;;23.10;71.80;;;;;;5054952;28;20196;-68
2022/09/02 08:41:46;;;;;;;5.60;5.20;;;23.20;71.20;;;;;;5041492;28;20190;-68
2022/09/02 08:44:19;;;;;;;4.73;4.53;;;23.20;70.60;;;;;;5035539;28;20183;-67
2022/09/02 08:46:45;;;;;;;6.53;4.97;;;23.30;71.50;;;;;;5036502;28;20889;-67
2022/09/02 08:49:20;;;;;;;6.10;4.27;;;23.30;71.50;;;;;;5047925;28;20464;-67
2022/09/02 08:51:49;;;;;;;5.90;4.87;;;23.30;70.00;;;;;;5044161;28;21023;-68
2022/09/02 08:54:44;;;;;;;5.17;4.50;;;23.30;70.10;;;;;;5035716;28;20974;-67
2022/09/02 08:57:11;;;;;;;4.27;4.00;;;23.40;70.20;;;;;;5035782;28;20752;-67
2022/09/02 08:59:37;;;;;;;4.93;4.53;;;23.50;70.80;;;;;;5034775;28;20482;-68
2022/09/02 09:02:32;;;;;;;5.10;4.80;;;23.50;70.40;;;;;;5053304;28;20416;-67
2022/09/02 09:05:09;;;;;;;6.17;5.67;;;23.60;69.80;;;;;;5055008;28;20448;-67
2022/09/02 09:08:22;;;;;;;6.13;4.27;;;23.60;69.90;;;;;;5029480;28;20446;-68
2022/09/02 09:11:03;;;;;;;4.63;4.33;;;23.50;66.90;;;;;;5021124;28;20951;-68
2022/09/02 09:13:44;;;;;;;4.33;4.07;;;23.50;67.40;;;;;;5016838;28;20882;-69
2022/09/02 09:16:13;;;;;;;4.20;3.80;;;23.50;67.40;;;;;;5012920;28;20445;-68
2022/09/02 09:19:00;;;;;;;4.63;4.43;;;23.50;70.00;;;;;;5026336;28;20520;-69
2022/09/02 09:21:29;;;;;;;4.60;4.40;;;23.60;73.70;;;;;;5017574;28;20437;-68
2022/09/02 09:23:57;;;;;;;5.20;4.80;;;23.60;72.10;;;;;;5022668;28;20577;-67
2022/09/02 09:26:37;;;;;;;4.90;4.60;;;23.70;72.00;;;;;;5027100;28;20437;-68
2022/09/02 09:29:03;;;;;;;4.37;4.17;;;23.80;71.10;;;;;;5025179;28;21032;-67
2022/09/02 09:31:31;;;;;;;4.47;4.17;;;23.90;70.90;;;;;;5020725;28;20485;-72
2022/09/02 09:34:06;;;;;;;4.53;4.13;;;24.10;71.70;;;;;;5019802;28;20532;-67
2022/09/02 09:36:43;;;;;;;4.00;3.80;;;24.20;71.40;;;;;;5013814;28;20449;-73
2022/09/02 09:39:18;;;;;;;4.20;3.90;;;24.30;72.30;;;;;;5038281;28;20524;-67
2022/09/02 09:41:46;;;;;;;4.90;4.43;;;24.40;71.20;;;;;;5019760;28;20936;-67
2022/09/02 09:44:28;;;;;;;5.27;4.97;;;24.50;71.30;;;;;;5046255;28;20445;-68
2022/09/02 09:47:01;;;;;;;4.37;4.07;;;24.60;70.90;;;;;;5037318;28;20776;-67
2022/09/02 09:49:31;;;;;;;4.60;4.20;;;24.70;70.30;;;;;;5034004;28;20463;-67
2022/09/02 09:51:57;;;;;;;6.17;5.77;;;24.70;70.40;;;;;;5043575;28;20428;-67
2022/09/02 09:54:25;;;;;;;6.03;5.63;;;24.80;67.10;;;;;;5035313;28;20456;-67
2022/09/02 09:56:51;;;;;;;4.60;4.37;;;24.70;64.30;;;;;;5039444;28;20824;-67
2022/09/02 09:59:41;;;;;;;4.47;4.23;;;24.80;65.10;;;;;;5045532;28;20567;-67
2022/09/02 10:02:22;;;;;;;5.00;4.80;;;24.90;68.50;;;;;;5039962;28;20436;-67
2022/09/02 10:04:48;;;;;;;5.20;4.83;;;24.90;68.60;;;;;;5016096;28;20429;-67
2022/09/02 10:07:33;;;;;;;5.37;5.03;;;24.90;62.80;;;;;;5033929;28;20449;-67
2022/09/02 10:10:16;;;;;;;7.13;4.47;;;25.00;60.40;;;;;;5032723;28;20431;-68
2022/09/02 10:12:44;;;;;;;5.43;5.10;;;25.00;66.40;;;;;;5035017;28;20984;-68
2022/09/02 10:15:10;;;;;;;5.60;5.10;;;24.90;58.00;;;;;;5041632;28;20464;-67
2022/09/02 10:18:06;;;;;;;5.37;5.07;;;24.70;57.10;;;;;;5040337;28;20801;-72
2022/09/02 10:20:51;;;;;;;3.93;3.63;;;24.60;58.00;;;;;;5043790;28;20433;-74
2022/09/02 10:23:55;;;;;;;4.70;4.40;;;24.60;56.40;;;;;;5032927;28;20437;-68
2022/09/02 10:26:34;;;;;;;3.47;3.30;;;24.60;55.80;;;;;;5035913;28;20440;-67
2022/09/02 10:29:23;;;;;;;3.33;3.13;;;24.70;56.20;;;;;;5046281;28;20431;-67
2022/09/02 10:32:07;;;;;;;3.73;3.60;;;24.60;54.70;;;;;;5048324;28;20862;-68
2022/09/02 10:34:35;;;;;;;3.80;3.57;;;24.60;52.50;;;;;;5037618;28;20499;-72
2022/09/02 10:37:13;;;;;;;4.20;4.00;;;24.60;52.20;;;;;;5049837;28;20460;-67
2022/09/02 10:40:07;;;;;;;4.10;3.90;;;24.70;51.90;;;;;;5042897;28;20420;-67
2022/09/02 10:43:05;;;;;;;2.73;2.63;;;24.80;49.40;;;;;;5038012;28;20461;-68
2022/09/02 10:45:45;;;;;;;3.07;2.97;;;24.90;49.30;;;;;;5038717;28;20448;-67
2022/09/02 10:49:00;;;;;;;3.10;3.00;;;24.80;50.10;;;;;;5033243;28;20413;-68
2022/09/02 10:51:49;;;;;;;3.67;3.47;;;24.70;51.30;;;;;;5033268;28;20520;-68
2022/09/02 10:54:20;;;;;;;4.47;4.17;;;24.70;49.80;;;;;;5035214;28;20529;-67
2022/09/02 10:56:52;;;;;;;4.10;3.90;;;24.80;50.40;;;;;;5029819;28;20431;-68
2022/09/02 10:59:37;;;;;;;4.77;4.47;;;25.10;51.50;;;;;;5028484;28;20851;-69
2022/09/02 11:02:47;;;;;;;4.20;3.90;;;25.40;50.00;;;;;;5030726;28;20413;-67
2022/09/02 11:05:22;;;;;;;3.70;3.50;;;25.70;48.90;;;;;;4967072;28;20475;-68
2022/09/02 11:07:50;;;;;;;3.47;3.37;;;25.80;48.40;;;;;;5024774;28;20432;-67
2022/09/02 11:10:30;;;;;;;4.30;3.30;;;25.90;47.30;;;;;;5032874;28;20421;-67
2022/09/02 11:13:29;;;;;;;3.27;3.17;;;25.90;47.10;;;;;;5038958;28;20424;-66
2022/09/02 11:16:01;;;;;;;4.07;3.87;;;26.00;47.90;;;;;;4980439;28;20445;-67
2022/09/02 11:19:04;;;;;;;3.47;3.37;;;26.30;47.40;;;;;;5034055;28;20424;-67
2022/09/02 11:21:57;;;;;;;3.30;3.20;;;26.40;46.00;;;;;;4991589;28;20427;-67
2022/09/02 11:24:46;;;;;;;3.20;3.10;;;26.20;45.00;;;;;;5034769;28;20578;-67
2022/09/02 11:27:32;;;;;;;3.40;3.30;;;26.20;45.80;;;;;;5044664;28;20774;-68
2022/09/02 11:30:00;;;;;;;3.87;3.67;;;26.00;47.10;;;;;;5041115;28;20501;-67
2022/09/02 11:33:03;;;;;;;4.90;3.90;;;25.90;46.80;;;;;;5002895;28;20479;-67
2022/09/02 11:35:35;;;;;;;4.73;4.20;;;25.90;47.80;;;;;;5038157;28;20472;-68
2022/09/02 11:38:21;;;;;;;4.53;4.33;;;25.80;48.00;;;;;;5037038;28;20437;-67
2022/09/02 11:40:47;;;;;;;4.00;3.80;;;25.80;48.30;;;;;;5045257;28;20949;-67
2022/09/02 11:43:22;;;;;;;4.20;3.90;;;25.80;48.80;;;;;;5051108;28;20413;-67
2022/09/02 11:46:35;;;;;;;4.10;3.80;;;25.80;48.60;;;;;;5035808;28;20569;-67
2022/09/02 11:49:30;;;;;;;4.80;4.50;;;25.70;48.30;;;;;;5021348;28;20433;-68
2022/09/02 11:52:25;;;;;;;5.73;5.20;;;25.70;49.50;;;;;;5048744;28;20823;-68
2022/09/02 11:55:09;;;;;;;5.37;5.07;;;25.60;47.90;;;;;;5044039;28;20465;-68
2022/09/02 11:57:37;;;;;;;4.50;4.20;;;25.40;48.20;;;;;;5052463;28;20448;-67
2022/09/02 12:00:06;;;;;;;4.70;4.50;;;25.40;48.40;;;;;;5047003;28;20490;-67
2022/09/02 12:02:49;;;;;;;3.80;3.60;;;25.40;47.70;;;;;;5048429;28;20432;-67
2022/09/02 12:05:28;;;;;;;3.93;3.60;;;25.30;48.20;;;;;;5044003;28;20787;-68
2022/09/02 12:07:59;;;;;;;5.60;4.90;;;25.20;47.30;;;;;;4989679;28;20786;-69
2022/09/02 12:10:44;;;;;;;4.50;4.30;;;25.30;48.10;;;;;;5036638;28;20405;-69
2022/09/02 12:13:32;;;;;;;4.53;4.33;;;25.40;48.50;;;;;;5035893;28;20426;-70
2022/09/02 12:16:27;;;;;;;3.60;3.50;;;25.50;47.70;;;;;;5040824;28;20448;-70
2022/09/02 12:18:53;;;;;;;5.03;4.73;;;25.70;47.00;;;;;;5013969;28;20496;-71
2022/09/02 12:21:24;;;;;;;3.43;3.30;;;25.80;46.50;;;;;;5038283;28;20487;-69
2022/09/02 12:23:55;;;;;;;6.07;5.57;;;25.80;46.30;;;;;;5034872;28;20170;-69
2022/09/02 12:26:23;;;;;;;4.60;4.23;;;25.90;47.70;;;;;;5035712;28;20440;-69
2022/09/02 12:28:50;;;;;;;4.07;3.77;;;26.10;52.60;;;;;;5044741;28;20428;-69
2022/09/02 12:31:42;;;;;;;4.47;4.17;;;26.10;48.40;;;;;;5044397;28;20435;-69
2022/09/02 12:34:19;;;;;;;3.00;2.80;;;26.10;48.00;;;;;;5054272;28;20494;-68
2022/09/02 12:36:52;;;;;;;3.90;3.67;;;26.10;48.90;;;;;;5038676;28;20444;-69
2022/09/02 12:39:24;;;;;;;3.67;3.43;;;26.00;48.60;;;;;;5035431;28;20409;-69
2022/09/02 12:42:11;;;;;;;3.70;3.50;;;25.90;47.10;;;;;;5033286;28;20444;-69
2022/09/02 12:44:52;;;;;;;4.40;4.20;;;25.80;46.90;;;;;;5043488;28;20436;-69
2022/09/02 12:47:36;;;;;;;4.27;3.97;;;25.60;46.50;;;;;;5051223;28;20471;-69
2022/09/02 12:50:12;;;;;;;4.80;4.60;;;25.30;47.40;;;;;;5043026;28;20502;-66
2022/09/02 12:52:44;;;;;;;4.43;4.23;;;25.40;47.80;;;;;;5035168;28;20424;-66
2022/09/02 12:55:21;;;;;;;3.60;3.50;;;25.50;47.00;;;;;;5017419;28;20452;-66
2022/09/02 12:57:50;;;;;;;4.00;3.80;;;25.60;46.90;;;;;;5033986;28;20405;-66
2022/09/02 13:00:45;;;;;;;3.10;3.00;;;25.50;46.90;;;;;;5036204;28;20839;-65
2022/09/02 13:03:29;;;;;;;3.73;3.50;;;25.70;46.90;;;;;;5043994;28;20446;-70
2022/09/02 13:06:21;;;;;;;3.40;3.30;;;25.90;47.80;;;;;;5048530;28;20484;-68
2022/09/02 13:09:09;;;;;;;3.10;3.00;;;25.80;46.40;;;;;;5047884;28;20444;-67
2022/09/02 13:11:44;;;;;;;3.60;3.50;;;25.90;47.30;;;;;;5039877;28;20447;-66
2022/09/02 13:14:34;;;;;;;3.60;3.40;;;26.00;45.70;;;;;;5037733;28;20550;-66
2022/09/02 13:17:20;;;;;;;3.07;2.97;;;26.00;46.00;;;;;;5041062;28;20463;-66